Midway, AR (72651)

12:26 PM CST on December 03, 2016 (GMT -0600)
Wildrose | | Change Station

Elev 899 ft 36.39 °N, 92.46 °W | Updated 23 seconds ago

Overcast
Overcast
44.6 °F
Feels Like 45 °F
N
1.0
Wind Variable Wind from ESE

Today
High -- | Low -- °F
--% Chance of Precip.
Yesterday
High -- | Low -- °F
Precip. -- in
Pressure 30.27 in
Visibility 10.0 miles
Clouds Mostly Cloudy 4800 ft
Mostly Cloudy 6000 ft
Overcast 9500 ft
Windchill 45 °F
Dew Point 36 °F
Humidity 71%
Rainfall 0.00 in
Snow Depth Not available.
7:05 AM 4:54 PM
Waxing Crescent, 16% visible
METAR KBPK 031753Z AUTO 15005KT 10SM BKN048 BKN060 OVC095 07/00 A3027 RMK AO2 SLP251 T00670000 10067 20050 58010
Pressure 30.27 in
Visibility 10.0 miles
Clouds Mostly Cloudy 4800 ft
Mostly Cloudy 6000 ft
Overcast 9500 ft
Windchill 45 °F
Dew Point 36 °F
Humidity 71%
Rainfall 0.00 in
Snow Depth Not available.
7:05 AM 4:54 PM
Waxing Crescent, 16% visible
METAR KBPK 031753Z AUTO 15005KT 10SM BKN048 BKN060 OVC095 07/00 A3027 RMK AO2 SLP251 T00670000 10067 20050 58010

10-Day Weather Forecast

Almanac

Astronomy

Dec. 03, 2016 Rise Set
Actual Time
Civil Twilight
Nautical Twilight
Astronomical Twilight
Moon
Length of Visible Light
Length of Day
Tomorrow will be .
, % of the Moon is Illuminated

Today's Extremes

State Highs State Lows

Community

WunderPhotos

Upload Photos

1,955,457 photos uploaded!

WunderBlog® & News

Nearby

Air Quality

  Air Quality AQ Index Pollutant
Not available.

Snow Depth

Station Depth Elevation

Earthquake Activity

City Distance Mag. Time & Date
Minimum magnitude displayed is 2.5.

Coastal Water Temperatures

Place Temperature

Stations

Nearby Weather Stations

Station Location Temp. Windchill Dew Point Humidity Wind Precip. Elev Updated Type
                   

Watches & Warnings

There are currently no watches in effect.